Time;durP1;ratioP1;P1;durP2;ratioP2;P2;SDS_P1;SDS_P2;PMS_P1;PMS_P2;Temp;Humidity;BMP_temperature;BMP_pressure;BME280_temperature;BME280_humidity;BME280_pressure;Samples;Min_cycle;Max_cycle;Signal;HPM_P1;HPM_P2
2022/07/02 00:00:49;;;;;;;7.68;3.20;;;;;;;10.78;90.78;94544.84;5051911;28;20051;-58
2022/07/02 00:03:22;;;;;;;5.25;3.20;;;;;;;10.83;91.16;94553.84;5051505;28;20417;-59
2022/07/02 00:05:56;;;;;;;5.95;3.10;;;;;;;10.85;91.08;94546.75;5051823;28;20037;-60
2022/07/02 00:08:24;;;;;;;4.88;3.08;;;;;;;10.84;90.89;94542.44;5052301;28;20047;-58
2022/07/02 00:10:52;;;;;;;4.67;3.17;;;;;;;10.89;90.84;94541.25;5046903;28;20041;-59
2022/07/02 00:13:20;;;;;;;6.05;4.03;;;;;;;10.89;90.56;94542.03;5035985;28;20429;-58
2022/07/02 00:15:47;;;;;;;4.72;3.22;;;;;;;10.89;90.25;94541.25;5051338;28;20056;-60
2022/07/02 00:18:15;;;;;;;7.68;3.83;;;;;;;10.92;90.76;94543.19;5052143;28;20064;-61
2022/07/02 00:20:45;;;;;;;7.18;4.00;;;;;;;10.96;90.81;94538.44;5051760;28;20041;-59
2022/07/02 00:23:12;;;;;;;7.50;4.30;;;;;;;10.90;91.53;94546.31;5052181;28;20044;-60
2022/07/02 00:26:02;;;;;;;11.43;4.80;;;;;;;10.79;92.45;94543.66;5051469;28;20045;-62
2022/07/02 00:28:33;;;;;;;7.03;4.00;;;;;;;10.66;92.45;94539.78;5051748;28;20037;-59
2022/07/02 00:31:00;;;;;;;10.23;4.40;;;;;;;10.71;92.59;94535.88;5030716;28;20460;-61
2022/07/02 00:33:29;;;;;;;12.48;4.35;;;;;;;10.70;92.53;94537.81;5024713;28;20050;-59
2022/07/02 00:35:57;;;;;;;14.57;4.83;;;;;;;10.69;92.90;94533.50;5021234;28;20079;-59
2022/07/02 00:38:24;;;;;;;9.90;4.50;;;;;;;10.62;93.07;94539.03;5007521;28;20042;-59
2022/07/02 00:40:53;;;;;;;34.00;5.45;;;;;;;10.68;93.29;94542.91;5022157;28;20413;-59
2022/07/02 00:43:21;;;;;;;30.73;5.10;;;;;;;10.65;93.87;94542.97;5009727;28;20041;-59
2022/07/02 00:45:48;;;;;;;17.02;5.00;;;;;;;10.54;94.42;94535.56;5021283;28;20046;-59
2022/07/02 00:48:15;;;;;;;12.03;4.60;;;;;;;10.54;94.48;94532.03;5028612;28;20059;-61
2022/07/02 00:50:42;;;;;;;15.38;4.88;;;;;;;10.45;94.86;94532.47;5030894;28;20052;-60
2022/07/02 00:53:08;;;;;;;22.13;4.70;;;;;;;10.54;94.60;94529.28;5030068;28;20044;-59
2022/07/02 00:55:35;;;;;;;10.85;4.80;;;;;;;10.59;94.62;94529.66;5023726;28;20053;-62
2022/07/02 00:58:02;;;;;;;14.30;5.03;;;;;;;10.64;94.26;94533.91;5018893;28;20486;-59
2022/07/02 01:00:29;;;;;;;12.57;4.97;;;;;;;10.60;94.52;94524.94;5031321;28;20409;-59
2022/07/02 01:02:56;;;;;;;26.15;5.47;;;;;;;10.57;95.43;94532.00;5028693;28;20063;-61
2022/07/02 01:05:23;;;;;;;44.10;8.65;;;;;;;10.59;95.07;94532.38;5031123;28;20051;-59
2022/07/02 01:10:47;;;;;;;15.65;5.30;;;;;;;10.61;95.04;94531.22;5026072;28;20045;-60
2022/07/02 01:13:15;;;;;;;11.33;4.83;;;;;;;10.63;94.61;94535.13;5017340;28;20033;-60
2022/07/02 01:15:41;;;;;;;26.73;4.70;;;;;;;10.57;94.49;94531.22;5030523;28;20095;-61
2022/07/02 01:18:10;;;;;;;27.30;4.80;;;;;;;10.53;94.42;94536.72;5030986;28;20051;-59
2022/07/02 01:20:37;;;;;;;12.52;3.95;;;;;;;10.51;94.46;94528.13;5029031;28;20390;-59
2022/07/02 01:23:04;;;;;;;18.25;5.45;;;;;;;10.47;94.33;94534.81;5030453;28;20398;-59
2022/07/02 01:25:30;;;;;;;11.70;4.10;;;;;;;10.45;94.41;94539.91;5016170;28;20415;-61
2022/07/02 01:27:57;;;;;;;18.05;4.80;;;;;;;10.36;94.45;94529.34;5030199;28;20463;-60
2022/07/02 01:30:24;;;;;;;17.33;4.50;;;;;;;10.30;94.34;94528.22;5030635;28;20038;-60
2022/07/02 01:32:51;;;;;;;13.27;4.50;;;;;;;10.23;94.54;94534.50;5026735;28;20053;-59
2022/07/02 01:35:17;;;;;;;16.85;5.63;;;;;;;10.23;94.60;94539.97;5023407;28;20045;-59
2022/07/02 01:37:44;;;;;;;14.73;4.80;;;;;;;10.20;94.94;94535.28;5029837;28;20729;-63
2022/07/02 01:40:11;;;;;;;68.03;26.60;;;;;;;10.15;95.23;94533.72;5029214;28;20055;-61
2022/07/02 01:42:38;;;;;;;18.80;5.47;;;;;;;9.84;96.29;94529.94;5030338;28;20042;-60
2022/07/02 01:45:05;;;;;;;37.60;5.70;;;;;;;9.84;97.62;94531.88;5029642;28;20364;-60
2022/07/02 01:47:32;;;;;;;42.63;5.60;;;;;;;9.94;97.55;94534.59;5010540;28;20491;-59
2022/07/02 01:49:59;;;;;;;29.43;5.33;;;;;;;9.87;97.45;94518.16;5023244;28;20506;-59
2022/07/02 01:52:26;;;;;;;115.63;7.05;;;;;;;9.72;98.79;94519.38;5030148;28;20041;-59
2022/07/02 01:54:53;;;;;;;64.80;6.88;;;;;;;9.74;98.66;94517.81;5029782;28;20483;-59
2022/07/02 01:57:21;;;;;;;64.60;6.78;;;;;;;9.79;99.77;94520.13;5013718;28;20046;-59
2022/07/02 01:59:48;;;;;;;14.68;5.10;;;;;;;9.90;99.02;94519.31;5027437;28;20051;-61
2022/07/02 02:02:15;;;;;;;19.83;5.47;;;;;;;9.97;98.49;94511.06;5030569;28;20057;-59
2022/07/02 02:04:42;;;;;;;23.92;5.20;;;;;;;9.96;98.05;94510.31;5028350;28;20045;-59
2022/07/02 02:07:09;;;;;;;17.50;4.97;;;;;;;9.98;97.84;94510.69;5029822;28;20077;-59
2022/07/02 02:09:36;;;;;;;26.15;4.70;;;;;;;9.99;97.29;94517.72;5024674;28;20077;-60
2022/07/02 02:12:03;;;;;;;18.35;4.53;;;;;;;9.97;96.64;94514.59;5028350;28;20037;-60
2022/07/02 02:14:30;;;;;;;18.80;4.50;;;;;;;9.75;96.48;94515.84;5030030;28;20045;-60
2022/07/02 02:16:57;;;;;;;44.22;5.07;;;;;;;9.55;97.26;94518.22;5027517;28;23021;-60
2022/07/02 02:19:24;;;;;;;38.92;5.25;;;;;;;9.64;97.88;94526.84;5021739;28;20475;-59
2022/07/02 02:21:50;;;;;;;11.15;4.80;;;;;;;9.63;98.51;94522.53;5005293;28;20045;-59
2022/07/02 02:24:17;;;;;;;24.52;5.20;;;;;;;9.65;98.69;94522.91;5033500;28;20456;-60
2022/07/02 02:26:44;;;;;;;38.43;6.20;;;;;;;9.67;98.69;94517.81;5037075;28;20037;-59
2022/07/02 02:29:10;;;;;;;27.60;5.85;;;;;;;9.69;99.55;94517.44;5047605;28;20041;-61
2022/07/02 02:31:37;;;;;;;70.22;7.35;;;;;;;9.73;99.57;94518.97;5044711;28;20046;-59
2022/07/02 02:34:04;;;;;;;19.08;4.28;;;;;;;9.79;99.54;94522.88;5029300;28;20379;-59
2022/07/02 02:36:31;;;;;;;36.28;4.75;;;;;;;9.64;99.50;94517.81;5046880;28;20053;-60
2022/07/02 02:38:58;;;;;;;51.73;4.90;;;;;;;9.52;100.00;94519.03;5048058;28;20049;-60
2022/07/02 02:41:25;;;;;;;27.98;5.25;;;;;;;9.55;100.00;94519.00;5048173;28;20044;-62
2022/07/02 02:43:51;;;;;;;39.67;5.18;;;;;;;9.63;100.00;94521.75;5035253;28;20045;-60
2022/07/02 02:46:18;;;;;;;35.95;5.55;;;;;;;9.69;100.00;94520.94;5049273;28;20071;-59
2022/07/02 02:48:45;;;;;;;54.13;5.40;;;;;;;9.70;100.00;94517.03;5048797;28;20041;-60
2022/07/02 02:51:15;;;;;;;24.10;4.60;;;;;;;9.76;100.00;94520.94;5035571;28;20410;-60
2022/07/02 02:53:43;;;;;;;23.60;4.20;;;;;;;9.68;100.00;94519.38;5035227;28;20059;-59
2022/07/02 02:56:10;;;;;;;16.38;4.03;;;;;;;9.65;100.00;94519.38;5049002;28;20071;-61
2022/07/02 02:58:37;;;;;;;22.77;3.90;;;;;;;9.49;100.00;94506.09;5048995;28;20133;-61
2022/07/02 03:01:04;;;;;;;10.73;3.80;;;;;;;9.28;100.00;94512.41;5038888;28;20048;-59
2022/07/02 03:03:31;;;;;;;15.60;3.60;;;;;;;9.29;100.00;94511.22;5044114;28;20041;-59
2022/07/02 03:05:59;;;;;;;14.23;3.72;;;;;;;9.35;100.00;94509.66;5048979;28;20044;-60
2022/07/02 03:08:26;;;;;;;18.42;3.85;;;;;;;9.42;100.00;94509.66;5031272;28;20405;-58
2022/07/02 03:10:53;;;;;;;13.70;3.70;;;;;;;9.45;99.52;94517.06;5032836;28;20033;-59
2022/07/02 03:13:19;;;;;;;9.10;3.55;;;;;;;9.43;98.86;94513.94;5049352;28;20378;-60
2022/07/02 03:15:46;;;;;;;18.93;3.67;;;;;;;9.24;98.94;94515.13;5036998;28;20061;-59
2022/07/02 03:18:13;;;;;;;59.63;4.50;;;;;;;9.30;99.25;94510.06;5029111;28;20064;-59
2022/07/02 03:20:40;;;;;;;13.10;3.90;;;;;;;9.27;99.58;94510.81;5032498;28;20053;-61
2022/07/02 03:23:06;;;;;;;20.95;3.60;;;;;;;9.30;99.83;94518.28;5044854;28;20045;-59
2022/07/02 03:25:33;;;;;;;9.00;3.20;;;;;;;9.35;99.76;94513.16;5034470;28;20042;-59
2022/07/02 03:28:00;;;;;;;27.43;3.73;;;;;;;9.36;98.83;94516.69;5048625;28;20063;-61
2022/07/02 03:30:27;;;;;;;22.75;3.15;;;;;;;9.38;98.75;94517.88;5048978;28;20102;-59
2022/07/02 03:32:54;;;;;;;22.40;3.50;;;;;;;9.23;98.53;94521.00;5045684;28;20055;-60
2022/07/02 03:35:21;;;;;;;88.50;5.40;;;;;;;9.31;98.79;94533.53;5024760;28;20057;-58
2022/07/02 03:37:47;;;;;;;45.72;3.80;;;;;;;9.30;98.21;94527.25;5022879;28;20064;-59
2022/07/02 03:40:14;;;;;;;17.53;3.27;;;;;;;9.34;98.24;94528.03;5032716;28;20037;-61
2022/07/02 03:42:41;;;;;;;28.83;3.85;;;;;;;9.25;98.17;94527.66;5032375;28;20053;-60
2022/07/02 03:45:08;;;;;;;35.22;3.70;;;;;;;9.14;98.98;94533.13;5032327;28;20045;-59
2022/07/02 03:47:35;;;;;;;84.88;4.30;;;;;;;8.99;99.89;94526.88;5032578;28;20372;-59
2022/07/02 03:50:02;;;;;;;53.13;4.53;;;;;;;9.08;100.00;94531.19;5031058;28;20405;-59
2022/07/02 03:52:28;;;;;;;89.17;4.77;;;;;;;8.99;100.00;94537.03;5028439;28;20495;-58
2022/07/02 03:54:55;;;;;;;20.52;3.90;;;;;;;9.12;100.00;94542.91;5031701;28;20072;-59
2022/07/02 03:57:22;;;;;;;22.40;3.72;;;;;;;9.12;100.00;94540.19;5032923;28;20044;-59
2022/07/02 03:59:49;;;;;;;47.15;4.65;;;;;;;9.27;100.00;94532.75;5032107;28;20050;-60
2022/07/02 04:02:16;;;;;;;21.27;5.00;;;;;;;9.37;100.00;94535.47;5032447;28;20041;-59
2022/07/02 04:04:42;;;;;;;24.57;4.20;;;;;;;9.24;100.00;94534.31;5051977;28;20049;-59
2022/07/02 04:07:10;;;;;;;27.48;3.47;;;;;;;9.11;99.86;94530.38;5051854;28;20041;-60
2022/07/02 04:09:36;;;;;;;22.20;3.60;;;;;;;9.01;99.40;94540.16;5045503;28;20114;-60
2022/07/02 04:12:03;;;;;;;21.23;3.70;;;;;;;9.04;100.00;94533.13;5045247;28;20037;-60
2022/07/02 04:14:30;;;;;;;23.67;3.55;;;;;;;9.14;100.00;94535.09;5038047;28;20050;-59
2022/07/02 04:16:57;;;;;;;14.30;3.63;;;;;;;9.18;100.00;94536.66;5033396;28;20727;-59
2022/07/02 04:19:23;;;;;;;15.48;3.45;;;;;;;9.34;99.70;94539.00;5035440;28;20055;-59
2022/07/02 04:21:50;;;;;;;28.35;4.38;;;;;;;9.41;99.14;94540.94;5039684;28;20415;-59
2022/07/02 04:24:17;;;;;;;27.90;3.72;;;;;;;9.35;99.24;94534.28;5044660;28;20052;-60
2022/07/02 04:26:44;;;;;;;29.83;3.80;;;;;;;9.37;98.47;94545.63;5031611;28;20053;-60
2022/07/02 04:29:10;;;;;;;106.50;5.50;;;;;;;9.43;99.26;94540.56;5047902;28;20055;-59
2022/07/02 04:31:37;;;;;;;50.72;4.00;;;;;;;9.50;98.16;94546.81;5041121;28;20517;-59
2022/07/02 04:34:04;;;;;;;34.03;4.38;;;;;;;9.91;97.95;94548.31;5034636;28;20604;-59
2022/07/02 04:36:31;;;;;;;19.20;3.13;;;;;;;9.84;95.52;94538.16;5049787;28;20055;-59
2022/07/02 04:38:57;;;;;;;20.13;3.00;;;;;;;9.90;96.82;94544.78;5051355;28;20051;-61
2022/07/02 04:41:24;;;;;;;14.23;3.13;;;;;;;10.05;96.29;94540.03;5051636;28;20390;-59
2022/07/02 04:43:51;;;;;;;31.13;3.30;;;;;;;10.69;94.13;94543.72;5049401;28;20053;-59
2022/07/02 04:46:17;;;;;;;23.00;3.20;;;;;;;11.11;91.62;94537.16;5050857;28;20036;-57
2022/07/02 04:48:44;;;;;;;13.82;2.80;;;;;;;10.98;90.05;94538.81;5050991;28;20076;-58
2022/07/02 04:51:11;;;;;;;12.63;2.90;;;;;;;11.23;89.29;94537.84;5037026;28;20405;-57
2022/07/02 04:53:38;;;;;;;25.17;2.90;;;;;;;11.25;88.02;94538.22;5050952;28;20056;-59
2022/07/02 04:56:05;;;;;;;12.05;2.78;;;;;;;11.24;87.60;94539.44;5049517;28;20111;-57
2022/07/02 04:58:31;;;;;;;16.77;3.33;;;;;;;11.50;87.29;94536.06;5050835;28;20389;-59
2022/07/02 05:00:58;;;;;;;9.10;2.72;;;;;;;12.15;84.52;94547.25;5039176;28;20046;-58
2022/07/02 05:03:25;;;;;;;6.50;2.30;;;;;;;12.15;84.49;94527.97;5042224;28;20043;-58
2022/07/02 05:05:52;;;;;;;9.37;2.43;;;;;;;12.66;82.44;94535.63;5050726;28;20045;-57
2022/07/02 05:08:26;;;;;;;23.88;3.20;;;;;;;12.22;84.03;94540.88;5050767;28;20045;-57
2022/07/02 05:10:54;;;;;;;15.27;2.90;;;;;;;12.74;80.79;94535.09;5044284;28;20401;-58
2022/07/02 05:13:21;;;;;;;15.93;2.63;;;;;;;12.99;80.33;94536.72;5049568;28;20109;-58
2022/07/02 05:15:49;;;;;;;12.20;2.90;;;;;;;12.73;81.22;94539.03;5042616;28;20049;-60
2022/07/02 05:18:16;;;;;;;9.63;3.00;;;;;;;12.77;82.57;94537.00;5045078;28;20041;-58
2022/07/02 05:20:43;;;;;;;8.43;2.90;;;;;;;13.02;78.32;94537.84;5050616;28;20502;-58
2022/07/02 05:23:10;;;;;;;18.05;3.28;;;;;;;13.96;76.61;94530.44;5039244;28;20433;-58
2022/07/02 05:25:36;;;;;;;8.43;3.00;;;;;;;14.64;75.43;94519.28;5036679;28;20041;-58
2022/07/02 05:28:03;;;;;;;12.98;2.80;;;;;;;15.32;70.96;94520.53;5050306;28;20037;-58
2022/07/02 05:30:30;;;;;;;6.63;2.67;;;;;;;16.59;65.31;94525.13;5050634;28;20387;-59
2022/07/02 05:32:57;;;;;;;8.07;2.80;;;;;;;17.33;63.54;94517.81;5026541;28;21741;-58
2022/07/02 05:35:24;;;;;;;5.68;2.70;;;;;;;17.05;63.24;94523.00;5021718;28;20091;-61
2022/07/02 05:37:50;;;;;;;4.57;2.85;;;;;;;18.85;58.95;94519.78;5029786;28;20049;-58
2022/07/02 05:40:17;;;;;;;4.35;2.70;;;;;;;19.14;57.70;94520.25;5044764;28;20047;-59
2022/07/02 05:42:44;;;;;;;5.20;3.10;;;;;;;20.17;53.77;94524.09;5049866;28;20045;-61
2022/07/02 05:45:11;;;;;;;3.95;2.70;;;;;;;18.69;57.67;94521.53;5050368;28;20437;-59
2022/07/02 05:47:37;;;;;;;6.15;3.00;;;;;;;21.12;52.09;94520.28;5050093;28;20064;-59
2022/07/02 05:50:05;;;;;;;5.78;3.33;;;;;;;21.03;52.60;94517.53;5050171;28;20470;-61
2022/07/02 05:52:31;;;;;;;4.38;2.75;;;;;;;22.79;46.90;94518.03;5041612;28;20045;-59
2022/07/02 05:54:58;;;;;;;4.67;2.93;;;;;;;23.63;45.55;94515.13;5044136;28;20051;-59
2022/07/02 05:57:25;;;;;;;4.95;3.17;;;;;;;24.11;43.95;94518.38;5050273;28;20460;-59
2022/07/02 05:59:52;;;;;;;5.47;3.20;;;;;;;24.67;42.68;94512.69;5035891;28;20041;-60
2022/07/02 06:02:18;;;;;;;5.35;2.90;;;;;;;26.83;39.35;94510.06;5028589;28;20044;-62
2022/07/02 06:04:45;;;;;;;4.18;2.50;;;;;;;27.69;36.65;94506.81;5032090;28;20481;-59
2022/07/02 06:09:57;;;;;;;3.25;2.53;;;;;;;28.38;35.97;94502.56;5033443;28;20745;-61
2022/07/02 06:12:24;;;;;;;4.60;2.53;;;;;;;28.60;34.42;94505.31;5028448;28;20048;-60
2022/07/02 06:14:51;;;;;;;2.90;1.40;;;;;;;26.53;36.62;94504.06;5046133;28;20045;-62
2022/07/02 06:17:18;;;;;;;2.40;1.42;;;;;;;27.98;34.16;94507.56;5049749;28;20045;-60
2022/07/02 06:19:47;;;;;;;2.60;1.50;;;;;;;26.08;37.12;94505.41;5035180;28;20504;-60
2022/07/02 06:22:14;;;;;;;2.30;1.00;;;;;;;24.23;40.02;94513.69;5049210;28;20071;-59
2022/07/02 06:24:41;;;;;;;2.35;1.10;;;;;;;25.05;37.86;94507.97;5049511;28;20119;-60
2022/07/02 06:27:08;;;;;;;2.03;1.10;;;;;;;23.37;40.68;94509.38;5049346;28;20045;-60
2022/07/02 06:29:35;;;;;;;5.40;1.15;;;;;;;24.36;39.21;94507.69;5049073;28;20060;-60
2022/07/02 06:32:02;;;;;;;1.90;1.00;;;;;;;24.64;39.48;94508.03;5048247;28;20051;-60
2022/07/02 06:34:29;;;;;;;2.03;1.00;;;;;;;21.76;44.57;94522.06;5039286;28;20052;-60
2022/07/02 06:36:55;;;;;;;2.00;1.00;;;;;;;23.06;42.83;94497.44;5024216;28;20048;-64
2022/07/02 06:39:25;;;;;;;3.55;1.10;;;;;;;22.90;41.86;94506.28;5036620;28;20041;-60
2022/07/02 06:44:37;;;;;;;1.90;0.90;;;;;;;24.63;38.75;94505.72;5038088;28;20045;-60
2022/07/02 06:47:05;;;;;;;2.17;0.93;;;;;;;26.30;35.80;94504.00;5049060;28;20041;-60
2022/07/02 06:49:32;;;;;;;1.80;0.90;;;;;;;22.65;42.36;94505.56;5048956;28;20423;-61
2022/07/02 06:51:59;;;;;;;2.67;1.05;;;;;;;22.24;42.96;94505.31;5047699;28;20041;-59
2022/07/02 06:54:25;;;;;;;2.00;1.00;;;;;;;23.29;42.11;94497.78;5048050;28;20037;-60
2022/07/02 06:56:52;;;;;;;2.00;0.80;;;;;;;25.96;35.84;94500.22;5048870;28;20047;-59
2022/07/02 06:59:19;;;;;;;1.90;1.00;;;;;;;25.27;37.30;94501.78;5048995;28;20356;-60
2022/07/02 07:01:45;;;;;;;1.67;0.80;;;;;;;26.92;33.56;94501.38;5032535;28;20072;-60
2022/07/02 07:04:34;;;;;;;1.95;0.90;;;;;;;23.94;38.25;94506.16;5001003;28;20049;-61
2022/07/02 07:07:05;;;;;;;2.22;1.00;;;;;;;22.28;40.89;94505.91;5030274;28;20064;-61
2022/07/02 07:09:35;;;;;;;2.10;0.90;;;;;;;22.37;41.04;94501.47;5028656;28;20045;-60
2022/07/02 07:12:06;;;;;;;2.00;0.90;;;;;;;22.33;40.80;94498.88;5036584;28;20486;-59
2022/07/02 07:14:34;;;;;;;2.58;1.00;;;;;;;20.61;45.01;94498.72;5048264;28;20489;-59
2022/07/02 07:17:02;;;;;;;2.30;0.90;;;;;;;23.91;38.35;94504.34;5048546;28;20044;-60
2022/07/02 07:19:29;;;;;;;1.95;0.95;;;;;;;22.55;40.25;94504.13;5036551;28;20042;-60
2022/07/02 07:21:55;;;;;;;1.90;1.07;;;;;;;23.31;38.63;94492.47;5046962;28;20060;-59
2022/07/02 07:24:22;;;;;;;4.28;1.35;;;;;;;25.61;35.21;94499.22;5048752;28;20051;-60
2022/07/02 07:26:49;;;;;;;2.72;0.90;;;;;;;22.97;38.24;94511.50;5046720;28;20076;-60
2022/07/02 07:29:16;;;;;;;2.20;0.90;;;;;;;23.08;38.75;94502.53;5048095;28;20053;-59
2022/07/02 07:31:42;;;;;;;2.35;0.88;;;;;;;21.88;41.34;94497.94;5046980;28;20654;-60
2022/07/02 07:34:10;;;;;;;1.70;0.80;;;;;;;23.78;38.19;94498.28;5038436;28;20087;-61
2022/07/02 07:36:37;;;;;;;1.73;0.82;;;;;;;21.98;41.58;94493.81;5034714;28;20059;-59
2022/07/02 07:39:05;;;;;;;2.95;0.98;;;;;;;23.55;38.29;94491.56;5048069;28;20037;-60
2022/07/02 07:41:35;;;;;;;1.70;0.85;;;;;;;23.70;38.26;94483.88;5048551;28;20044;-59
2022/07/02 07:44:03;;;;;;;2.50;1.00;;;;;;;23.79;37.99;94491.44;5048222;28;20041;-60
2022/07/02 07:46:30;;;;;;;1.90;0.90;;;;;;;23.26;38.15;94490.34;5048292;28;20064;-60
2022/07/02 07:48:58;;;;;;;1.80;0.93;;;;;;;20.79;41.52;94492.34;5032681;28;20436;-60
2022/07/02 07:51:25;;;;;;;3.10;1.10;;;;;;;19.98;43.53;94499.00;5033792;28;20113;-61
2022/07/02 07:53:53;;;;;;;2.88;0.80;;;;;;;20.82;41.84;94494.94;5048107;28;20040;-61
2022/07/02 07:56:19;;;;;;;2.10;1.13;;;;;;;20.94;43.54;94493.97;5046705;28;20622;-60
2022/07/02 07:58:46;;;;;;;2.00;0.90;;;;;;;22.87;40.13;94482.81;5048304;28;20048;-61
2022/07/02 08:01:13;;;;;;;2.67;0.80;;;;;;;21.46;41.85;94482.03;5037558;28;20048;-60
2022/07/02 08:03:40;;;;;;;2.10;0.90;;;;;;;23.09;39.41;94478.88;5028054;28;20045;-59
2022/07/02 08:06:07;;;;;;;1.80;0.82;;;;;;;24.12;36.23;94471.47;5031365;28;20409;-59
2022/07/02 08:08:34;;;;;;;1.90;0.95;;;;;;;25.03;34.32;94465.56;5029176;28;20053;-60
2022/07/02 08:11:01;;;;;;;2.10;1.30;;;;;;;25.40;33.45;94476.09;5032112;28;20482;-61
2022/07/02 08:13:27;;;;;;;3.15;0.80;;;;;;;26.76;31.36;94471.88;5046773;28;20068;-60
2022/07/02 08:15:54;;;;;;;2.20;0.80;;;;;;;25.56;32.89;94474.66;5048036;28;20043;-59
2022/07/02 08:18:21;;;;;;;2.22;1.05;;;;;;;23.22;36.46;94476.56;5032902;28;20436;-60
2022/07/02 08:20:48;;;;;;;3.40;0.88;;;;;;;24.89;34.03;94477.66;5041096;28;20435;-61
2022/07/02 08:23:15;;;;;;;2.43;0.77;;;;;;;23.47;35.55;94480.75;5051556;28;20508;-60
2022/07/02 08:25:42;;;;;;;1.80;0.80;;;;;;;23.52;36.01;94473.69;5051401;28;20049;-60
2022/07/02 08:28:08;;;;;;;1.80;0.80;;;;;;;20.88;39.60;94478.34;5051288;28;20041;-59
2022/07/02 08:30:35;;;;;;;3.10;0.80;;;;;;;24.95;32.91;94469.28;5051194;28;20045;-60
2022/07/02 08:33:04;;;;;;;1.73;0.80;;;;;;;23.70;34.97;94467.06;5046299;28;20049;-60
2022/07/02 08:35:31;;;;;;;1.97;0.70;;;;;;;24.42;33.54;94443.25;5041920;28;20053;-60
2022/07/02 08:37:58;;;;;;;2.22;0.70;;;;;;;22.72;37.57;94460.44;5041844;28;20041;-60
2022/07/02 08:40:26;;;;;;;5.05;0.80;;;;;;;25.59;32.38;94467.25;5051106;28;20048;-60
2022/07/02 08:42:55;;;;;;;1.70;0.88;;;;;;;26.65;31.06;94466.25;5051085;28;20033;-62
2022/07/02 08:45:23;;;;;;;2.05;0.90;;;;;;;22.32;37.53;94472.16;5035846;28;20045;-62
2022/07/02 08:47:52;;;;;;;1.80;0.73;;;;;;;26.55;31.34;94462.09;5050728;28;20041;-61
2022/07/02 08:50:21;;;;;;;1.60;0.70;;;;;;;24.30;35.07;94465.56;5051145;28;20049;-60
2022/07/02 08:52:50;;;;;;;2.15;0.80;;;;;;;22.40;38.36;94458.59;5049458;28;20516;-60
2022/07/02 08:55:21;;;;;;;1.73;0.80;;;;;;;25.60;32.56;94447.09;5050741;28;20178;-61
2022/07/02 08:57:50;;;;;;;2.13;0.70;;;;;;;25.43;33.37;94446.22;5050662;28;20500;-60
2022/07/02 09:00:20;;;;;;;1.80;0.70;;;;;;;25.65;32.79;94449.16;5050760;28;20040;-60
2022/07/02 09:02:54;;;;;;;1.60;0.70;;;;;;;25.73;32.75;94449.47;5050673;28;20045;-60
2022/07/02 09:05:22;;;;;;;2.33;0.70;;;;;;;24.26;35.78;94450.22;5050527;28;20067;-61
2022/07/02 09:07:50;;;;;;;2.25;0.70;;;;;;;24.27;35.29;94455.34;5050335;28;20057;-61
2022/07/02 09:10:20;;;;;;;2.60;0.80;;;;;;;25.99;31.94;94443.75;5039961;28;20410;-61
2022/07/02 09:12:47;;;;;;;1.63;0.70;;;;;;;24.91;33.61;94439.41;5044992;28;20053;-61
2022/07/02 09:15:15;;;;;;;1.70;0.70;;;;;;;28.29;29.18;94444.34;5050343;28;20057;-61
2022/07/02 09:17:43;;;;;;;1.77;0.80;;;;;;;23.71;35.75;94444.16;5050162;28;20049;-61
2022/07/02 09:20:11;;;;;;;1.63;0.80;;;;;;;26.39;31.76;94446.72;5050513;28;20045;-63
2022/07/02 09:22:47;;;;;;;1.95;0.80;;;;;;;25.60;33.28;94449.13;5050015;28;20052;-63
2022/07/02 09:25:16;;;;;;;1.70;0.70;;;;;;;24.38;33.97;94451.88;5050366;28;20711;-62
2022/07/02 09:27:45;;;;;;;1.70;0.80;;;;;;;21.68;39.21;94456.63;5040297;28;20049;-60
2022/07/02 09:30:15;;;;;;;1.70;0.80;;;;;;;24.16;35.60;94441.16;5044382;28;20063;-61
2022/07/02 09:32:45;;;;;;;1.83;0.82;;;;;;;23.22;37.21;94448.56;5048940;28;20053;-61
2022/07/02 09:35:22;;;;;;;2.40;0.80;;;;;;;24.73;35.03;94442.56;5041067;28;20075;-61
2022/07/02 09:37:50;;;;;;;2.00;0.70;;;;;;;26.64;31.96;94431.72;5049848;28;20055;-61
2022/07/02 09:40:20;;;;;;;1.90;0.90;;;;;;;29.12;27.96;94421.81;5050155;28;20063;-63
2022/07/02 09:42:48;;;;;;;2.05;0.90;;;;;;;26.22;30.86;94435.38;5049558;28;20061;-62
2022/07/02 09:45:16;;;;;;;2.08;0.75;;;;;;;29.62;28.00;94414.13;5049783;28;20051;-61
2022/07/02 09:47:49;;;;;;;1.90;0.90;;;;;;;25.94;31.98;94424.03;5049516;28;20057;-61
2022/07/02 09:50:18;;;;;;;2.40;0.80;;;;;;;27.80;29.85;94412.94;5049931;28;20041;-61
2022/07/02 09:52:48;;;;;;;1.83;0.80;;;;;;;28.71;28.87;94419.00;5049703;28;20080;-61
2022/07/02 09:55:25;;;;;;;1.95;0.90;;;;;;;29.32;26.99;94412.13;5049856;28;20047;-60
2022/07/02 09:57:54;;;;;;;1.83;0.70;;;;;;;25.46;32.67;94428.34;5049695;28;20059;-61
2022/07/02 10:00:24;;;;;;;1.65;0.73;;;;;;;25.66;32.47;94428.22;5035498;28;20037;-62
2022/07/02 10:02:53;;;;;;;1.97;0.90;;;;;;;24.94;34.35;94423.59;5049290;28;20037;-60
2022/07/02 10:05:26;;;;;;;2.33;1.00;;;;;;;26.86;30.80;94422.53;5049800;28;20041;-60
2022/07/02 10:07:55;;;;;;;1.92;0.90;;;;;;;25.71;32.88;94415.47;5042075;28;20045;-60
2022/07/02 10:10:39;;;;;;;2.63;0.90;;;;;;;23.16;34.92;94422.50;5026851;28;20041;-60
2022/07/02 10:13:10;;;;;;;2.25;1.02;;;;;;;22.65;37.80;94416.06;5021775;28;20033;-60
2022/07/02 10:15:50;;;;;;;2.90;1.10;;;;;;;25.99;31.75;94421.25;5046425;28;20049;-60
2022/07/02 10:18:18;;;;;;;2.83;0.90;;;;;;;26.86;30.54;94416.09;5020199;28;20072;-60
2022/07/02 10:20:45;;;;;;;1.90;1.02;;;;;;;26.75;30.12;94405.59;5047763;28;20457;-60
2022/07/02 10:23:12;;;;;;;2.42;1.00;;;;;;;25.96;31.79;94413.03;5048050;28;20401;-60
2022/07/02 10:25:39;;;;;;;2.00;0.93;;;;;;;25.82;31.20;94423.19;5042583;28;20049;-60
2022/07/02 10:28:06;;;;;;;1.90;0.90;;;;;;;24.09;34.48;94419.19;5042575;28;20047;-60
2022/07/02 10:30:34;;;;;;;1.80;1.00;;;;;;;22.81;36.71;94419.63;5047300;28;20052;-61
2022/07/02 10:33:20;;;;;;;1.80;1.00;;;;;;;25.87;33.47;94422.44;5046052;28;20053;-60
2022/07/02 10:35:49;;;;;;;2.00;0.95;;;;;;;28.65;29.48;94404.91;5048672;28;20048;-60
2022/07/02 10:38:31;;;;;;;2.10;1.10;;;;;;;24.97;34.10;94405.78;5039256;28;20056;-60
2022/07/02 10:40:58;;;;;;;1.90;0.97;;;;;;;29.22;29.12;94400.41;5047010;28;21380;-60
2022/07/02 10:43:29;;;;;;;2.33;1.00;;;;;;;27.33;30.56;94396.66;5038017;28;20432;-59
2022/07/02 10:46:07;;;;;;;2.45;0.90;;;;;;;27.48;31.11;94405.59;5021377;28;20625;-59
2022/07/02 10:48:46;;;;;;;1.80;0.90;;;;;;;26.20;31.58;94399.34;5029158;28;20041;-59
2022/07/02 10:51:26;;;;;;;2.10;1.10;;;;;;;24.94;34.97;94398.34;5015597;28;20049;-59
2022/07/02 10:53:57;;;;;;;2.00;1.00;;;;;;;24.41;35.87;94399.59;5029067;28;20049;-59
2022/07/02 10:56:25;;;;;;;2.00;1.08;;;;;;;25.07;33.45;94392.31;5029083;28;20045;-59
2022/07/02 10:58:52;;;;;;;2.22;1.02;;;;;;;24.90;34.44;94389.38;5029373;28;20053;-59
2022/07/02 11:01:24;;;;;;;2.45;1.10;;;;;;;24.71;35.63;94389.75;5027746;28;20051;-59
2022/07/02 11:03:57;;;;;;;2.20;1.10;;;;;;;23.44;37.45;94394.13;5028928;28;20045;-59
2022/07/02 11:06:28;;;;;;;2.07;1.10;;;;;;;24.54;35.94;94376.81;5028971;28;20045;-61
2022/07/02 11:09:03;;;;;;;2.00;1.10;;;;;;;23.23;38.01;94391.28;5018106;28;20115;-59
2022/07/02 11:11:32;;;;;;;2.30;1.20;;;;;;;23.88;36.25;94388.34;5010184;28;20046;-59
2022/07/02 11:14:01;;;;;;;2.45;1.40;;;;;;;21.54;41.64;94396.66;5007965;28;20651;-59
2022/07/02 11:16:31;;;;;;;2.30;1.30;;;;;;;22.79;39.89;94377.38;5023357;28;20106;-61
2022/07/02 11:18:58;;;;;;;3.17;1.57;;;;;;;22.89;39.35;94384.38;5033846;28;20732;-61
2022/07/02 11:21:27;;;;;;;2.65;1.40;;;;;;;23.34;38.76;94382.28;5048462;28;20037;-59
2022/07/02 11:23:54;;;;;;;4.35;1.60;;;;;;;24.33;36.75;94379.66;5046712;28;20482;-59
2022/07/02 11:26:26;;;;;;;4.95;1.50;;;;;;;24.74;37.37;94381.59;5029023;28;20046;-61
2022/07/02 11:28:54;;;;;;;4.43;1.70;;;;;;;22.05;41.62;94376.06;5043022;28;20045;-59
2022/07/02 11:31:23;;;;;;;2.20;1.10;;;;;;;22.96;39.49;94380.41;5048638;28;20048;-59
2022/07/02 11:33:55;;;;;;;2.20;1.17;;;;;;;22.99;39.77;94385.81;5037660;28;20049;-60
2022/07/02 11:36:26;;;;;;;5.05;1.40;;;;;;;23.29;39.61;94380.19;5048353;28;20068;-59
2022/07/02 11:38:53;;;;;;;2.78;1.20;;;;;;;22.28;38.71;94368.91;5030561;28;20037;-59
2022/07/02 11:41:29;;;;;;;3.20;1.20;;;;;;;23.30;37.41;94365.69;5048299;28;20045;-59
2022/07/02 11:43:58;;;;;;;4.27;1.43;;;;;;;23.89;36.76;94367.47;5034910;28;20462;-58